Time;durP1;ratioP1;P1;durP2;ratioP2;P2;SDS_P1;SDS_P2;PMS_P1;PMS_P2;Temp;Humidity;BMP_temperature;BMP_pressure;BME280_temperature;BME280_humidity;BME280_pressure;Samples;Min_cycle;Max_cycle;Signal;HPM_P1;HPM_P2
2022/05/31 00:00:24;;;;;;;;;;;14.30;99.90;;;;;;5116431;28;19962;-77
2022/05/31 00:02:52;;;;;;;;;;;14.30;99.90;;;;;;5116276;28;19915;-77
2022/05/31 00:05:18;;;;;;;;;;;14.30;99.90;;;;;;5116312;28;19907;-76
2022/05/31 00:07:45;;;;;;;;;;;14.30;99.90;;;;;;5115895;28;19908;-77
2022/05/31 00:10:13;;;;;;;;;;;14.40;99.90;;;;;;5116082;28;19930;-76
2022/05/31 00:12:40;;;;;;;;;;;14.40;99.90;;;;;;5116113;28;19914;-75
2022/05/31 00:15:08;;;;;;;;;;;14.40;99.90;;;;;;5115829;28;19919;-77
2022/05/31 00:17:35;;;;;;;;;;;14.50;99.90;;;;;;5115915;28;19912;-77
2022/05/31 00:20:03;;;;;;;;;;;14.50;99.90;;;;;;5116021;28;19908;-75
2022/05/31 00:22:32;;;;;;;;;;;14.50;99.90;;;;;;5115862;28;20006;-76
2022/05/31 00:24:59;;;;;;;;;;;14.50;99.90;;;;;;5115911;28;19908;-76
2022/05/31 00:27:26;;;;;;;;;;;14.60;99.90;;;;;;5115726;28;20015;-77
2022/05/31 00:29:53;;;;;;;;;;;14.60;99.90;;;;;;5115551;28;19915;-76
2022/05/31 00:32:24;;;;;;;;;;;14.80;99.90;;;;;;5115672;28;19958;-76
2022/05/31 00:34:52;;;;;;;;;;;14.80;99.90;;;;;;5115511;28;19915;-76
2022/05/31 00:37:19;;;;;;;;;;;14.80;99.90;;;;;;5113524;28;19971;-76
2022/05/31 00:39:46;;;;;;;;;;;14.80;99.90;;;;;;5115238;28;19908;-76
2022/05/31 00:42:17;;;;;;;;;;;14.90;99.90;;;;;;5114239;28;19915;-76
2022/05/31 00:44:44;;;;;;;;;;;14.80;99.90;;;;;;5115319;28;19908;-76
2022/05/31 00:47:11;;;;;;;;;;;14.70;99.90;;;;;;5115381;28;19911;-76
2022/05/31 00:49:42;;;;;;;;;;;14.80;99.90;;;;;;5115160;28;19955;-77
2022/05/31 00:52:15;;;;;;;;;;;14.70;99.90;;;;;;5114766;28;19951;-75
2022/05/31 00:54:44;;;;;;;;;;;14.70;99.90;;;;;;5115250;28;19911;-77
2022/05/31 00:57:12;;;;;;;;;;;14.80;99.90;;;;;;5115185;28;19992;-77
2022/05/31 00:59:41;;;;;;;;;;;14.90;99.90;;;;;;5114971;28;19908;-77
2022/05/31 01:02:09;;;;;;;;;;;15.20;99.90;;;;;;5115135;28;19908;-77
2022/05/31 01:04:40;;;;;;;;;;;15.60;99.90;;;;;;5115014;28;19908;-77
2022/05/31 01:07:07;;;;;;;;;;;15.90;99.90;;;;;;5114869;28;20010;-77
2022/05/31 01:09:35;;;;;;;;;;;16.20;99.90;;;;;;5114779;28;19907;-77
2022/05/31 01:12:03;;;;;;;;;;;16.20;99.90;;;;;;5115102;28;20002;-77
2022/05/31 01:14:31;;;;;;;;;;;16.20;99.70;;;;;;5114787;28;19916;-76
2022/05/31 01:17:09;;;;;;;;;;;16.50;99.90;;;;;;5114770;28;19915;-76
2022/05/31 01:22:20;;;;;;;;;;;16.40;99.70;;;;;;5114558;28;19919;-75
2022/05/31 01:24:46;;;;;;;;;;;16.30;99.90;;;;;;5114761;28;19918;-76
2022/05/31 01:27:22;;;;;;;;;;;16.30;99.90;;;;;;5114465;28;19912;-75
2022/05/31 01:29:49;;;;;;;;;;;16.20;99.50;;;;;;5114359;28;19911;-76
2022/05/31 01:32:16;;;;;;;;;;;16.10;99.90;;;;;;5114521;28;19907;-75
2022/05/31 01:34:54;;;;;;;;;;;16.00;99.20;;;;;;5114474;28;19919;-76
2022/05/31 01:37:25;;;;;;;;;;;15.80;99.50;;;;;;5114347;28;19915;-75
2022/05/31 01:39:54;;;;;;;;;;;15.70;99.30;;;;;;5114001;28;20370;-76
2022/05/31 01:42:25;;;;;;;;;;;15.60;99.60;;;;;;5114370;28;20036;-76
2022/05/31 01:44:53;;;;;;;;;;;15.50;99.90;;;;;;5114212;28;19951;-76
2022/05/31 01:47:20;;;;;;;;;;;15.60;99.90;;;;;;5114016;28;19911;-76
2022/05/31 01:49:49;;;;;;;;;;;15.60;99.90;;;;;;5113420;28;20002;-76
2022/05/31 01:52:16;;;;;;;;;;;15.60;99.90;;;;;;5113711;28;19930;-76
2022/05/31 01:54:43;;;;;;;;;;;15.70;99.80;;;;;;5114041;28;19912;-76
2022/05/31 01:57:11;;;;;;;;;;;15.70;99.90;;;;;;5114063;28;20022;-76
2022/05/31 01:59:49;;;;;;;;;;;15.70;99.60;;;;;;5113845;28;20270;-77
2022/05/31 02:02:16;;;;;;;;;;;15.70;99.70;;;;;;5114005;28;20272;-77
2022/05/31 02:04:43;;;;;;;;;;;15.70;99.90;;;;;;5114069;28;19915;-77
2022/05/31 02:07:13;;;;;;;;;;;15.70;99.50;;;;;;5113817;28;20361;-76
2022/05/31 02:09:40;;;;;;;;;;;15.70;99.90;;;;;;5113995;28;19908;-78
2022/05/31 02:12:08;;;;;;;;;;;15.70;99.20;;;;;;5113860;28;19916;-76
2022/05/31 02:14:35;;;;;;;;;;;15.60;99.60;;;;;;5113821;28;19912;-76
2022/05/31 02:17:02;;;;;;;;;;;15.60;99.20;;;;;;5112691;28;19939;-78
2022/05/31 02:19:29;;;;;;;;;;;15.60;98.80;;;;;;5113867;28;19961;-78
2022/05/31 02:21:57;;;;;;;;;;;15.60;99.90;;;;;;5113628;28;19943;-77
2022/05/31 02:24:24;;;;;;;;;;;15.60;99.00;;;;;;5113706;28;19951;-77
2022/05/31 02:26:51;;;;;;;;;;;15.70;99.70;;;;;;5113779;28;19908;-77
2022/05/31 02:29:20;;;;;;;;;;;15.60;99.30;;;;;;5113796;28;19908;-76
2022/05/31 02:31:47;;;;;;;;;;;15.60;99.50;;;;;;5113471;28;19911;-76
2022/05/31 02:34:16;;;;;;;;;;;15.70;99.50;;;;;;5113553;28;19915;-76
2022/05/31 02:36:43;;;;;;;;;;;15.70;99.90;;;;;;5113546;28;19919;-77
2022/05/31 02:39:10;;;;;;;;;;;15.70;99.30;;;;;;5113649;28;19912;-76
2022/05/31 02:41:37;;;;;;;;;;;15.70;99.90;;;;;;5113448;28;20332;-75
2022/05/31 02:44:03;;;;;;;;;;;15.70;99.70;;;;;;5113579;28;19908;-76
2022/05/31 02:46:30;;;;;;;;;;;15.70;99.40;;;;;;5113608;28;20004;-76
2022/05/31 02:48:57;;;;;;;;;;;15.60;99.40;;;;;;5113517;28;19918;-77
2022/05/31 02:51:23;;;;;;;;;;;15.70;99.90;;;;;;5113664;28;20002;-75
2022/05/31 02:53:50;;;;;;;;;;;15.80;99.70;;;;;;5113298;28;19930;-75
2022/05/31 02:56:17;;;;;;;;;;;15.80;99.30;;;;;;5113464;28;19920;-76
2022/05/31 02:58:44;;;;;;;;;;;15.80;99.10;;;;;;5113608;28;19908;-76
2022/05/31 03:01:21;;;;;;;;;;;15.80;99.10;;;;;;5117190;28;19908;-76
2022/05/31 03:03:48;;;;;;;;;;;15.90;99.10;;;;;;5117310;28;19907;-76
2022/05/31 03:06:14;;;;;;;;;;;15.90;98.80;;;;;;5117376;28;19907;-77
2022/05/31 03:08:41;;;;;;;;;;;15.80;98.70;;;;;;5117174;28;19953;-75
2022/05/31 03:11:10;;;;;;;;;;;15.70;98.90;;;;;;5117257;28;19907;-75
2022/05/31 03:13:38;;;;;;;;;;;15.60;99.00;;;;;;5117131;28;19912;-77
2022/05/31 03:16:05;;;;;;;;;;;15.50;98.80;;;;;;5117055;28;20293;-76
2022/05/31 03:18:33;;;;;;;;;;;15.50;98.90;;;;;;5117101;28;20040;-76
2022/05/31 03:21:04;;;;;;;;;;;15.40;99.30;;;;;;5117148;28;19908;-76
2022/05/31 03:23:33;;;;;;;;;;;15.40;99.70;;;;;;5116922;28;20362;-76
2022/05/31 03:26:01;;;;;;;;;;;15.40;99.80;;;;;;5116955;28;19908;-76
2022/05/31 03:28:29;;;;;;;;;;;15.40;99.90;;;;;;5116981;28;19954;-76
2022/05/31 03:30:55;;;;;;;;;;;15.40;99.80;;;;;;5116769;28;19943;-76
2022/05/31 03:33:22;;;;;;;;;;;15.30;99.80;;;;;;5116891;28;20362;-76
2022/05/31 03:35:49;;;;;;;;;;;15.10;99.50;;;;;;5116400;28;20362;-77
2022/05/31 03:38:15;;;;;;;;;;;14.90;99.90;;;;;;5116632;28;19953;-76
2022/05/31 03:40:57;;;;;;;;;;;14.90;99.90;;;;;;5116867;28;19914;-76
2022/05/31 03:43:25;;;;;;;;;;;14.70;99.90;;;;;;5116737;28;19916;-76
2022/05/31 03:45:52;;;;;;;;;;;14.60;99.90;;;;;;5116525;28;19908;-76
2022/05/31 03:48:19;;;;;;;;;;;14.50;99.90;;;;;;5116522;28;20323;-76
2022/05/31 03:50:46;;;;;;;;;;;14.60;99.90;;;;;;5116688;28;19908;-76
2022/05/31 03:53:14;;;;;;;;;;;14.60;99.90;;;;;;5116176;28;19962;-76
2022/05/31 03:55:42;;;;;;;;;;;14.70;99.90;;;;;;5116161;28;20270;-76
2022/05/31 03:58:09;;;;;;;;;;;14.70;99.90;;;;;;5116386;28;19908;-76
2022/05/31 04:00:36;;;;;;;;;;;14.90;99.90;;;;;;5116355;28;19970;-75
2022/05/31 04:03:02;;;;;;;;;;;15.00;99.90;;;;;;5116246;28;19914;-76
2022/05/31 04:05:29;;;;;;;;;;;15.10;99.90;;;;;;5116324;28;19957;-76
2022/05/31 04:08:01;;;;;;;;;;;15.20;99.20;;;;;;5115955;28;19912;-76
2022/05/31 04:10:29;;;;;;;;;;;15.20;99.00;;;;;;5115815;28;20020;-76
2022/05/31 04:12:56;;;;;;;;;;;15.10;98.80;;;;;;5115559;28;19994;-76
2022/05/31 04:15:22;;;;;;;;;;;15.00;99.30;;;;;;5114521;28;19993;-76
2022/05/31 04:17:49;;;;;;;;;;;15.00;99.80;;;;;;5115684;28;19914;-76
2022/05/31 04:20:15;;;;;;;;;;;15.00;99.00;;;;;;5115933;28;19908;-75
2022/05/31 04:22:42;;;;;;;;;;;15.00;99.00;;;;;;5115817;28;19915;-76
2022/05/31 04:25:09;;;;;;;;;;;14.90;99.90;;;;;;5115897;28;19915;-76
2022/05/31 04:27:36;;;;;;;;;;;15.00;99.90;;;;;;5115648;28;19915;-76
2022/05/31 04:30:03;;;;;;;;;;;14.90;99.80;;;;;;5115714;28;19914;-76
2022/05/31 04:32:30;;;;;;;;;;;14.90;99.40;;;;;;5115774;28;19908;-76
2022/05/31 04:34:57;;;;;;;;;;;15.00;99.90;;;;;;5115485;28;20385;-76
2022/05/31 04:37:23;;;;;;;;;;;15.00;99.90;;;;;;5115452;28;19911;-76
2022/05/31 04:39:50;;;;;;;;;;;15.10;99.90;;;;;;5115441;28;19912;-76
2022/05/31 04:42:16;;;;;;;;;;;15.00;99.50;;;;;;5115624;28;19911;-76
2022/05/31 04:44:43;;;;;;;;;;;15.10;99.90;;;;;;5115428;28;19907;-76
2022/05/31 04:47:10;;;;;;;;;;;15.10;99.60;;;;;;5115466;28;19915;-76
2022/05/31 04:49:37;;;;;;;;;;;15.10;99.60;;;;;;5115176;28;19908;-76
2022/05/31 04:52:04;;;;;;;;;;;15.00;99.30;;;;;;5114858;28;19932;-77
2022/05/31 04:54:30;;;;;;;;;;;15.00;99.70;;;;;;5115079;28;19990;-76
2022/05/31 04:57:00;;;;;;;;;;;15.10;99.30;;;;;;5113930;28;19911;-76
2022/05/31 04:59:27;;;;;;;;;;;15.00;99.10;;;;;;5115218;28;20369;-77
2022/05/31 05:01:54;;;;;;;;;;;15.10;99.70;;;;;;5114767;28;19979;-76
2022/05/31 05:04:21;;;;;;;;;;;15.10;98.90;;;;;;5114949;28;19930;-77
2022/05/31 05:06:47;;;;;;;;;;;15.10;99.80;;;;;;5114893;28;20298;-76
2022/05/31 05:09:14;;;;;;;;;;;15.00;99.20;;;;;;5114766;28;20336;-76
2022/05/31 05:11:41;;;;;;;;;;;14.90;99.10;;;;;;5114745;28;19908;-75
2022/05/31 05:14:07;;;;;;;;;;;14.80;99.30;;;;;;5114684;28;19908;-75
2022/05/31 05:16:34;;;;;;;;;;;14.60;99.30;;;;;;5114491;28;19916;-75
2022/05/31 05:19:01;;;;;;;;;;;14.50;99.90;;;;;;5114741;28;19907;-76
2022/05/31 05:21:27;;;;;;;;;;;14.50;99.90;;;;;;5114556;28;19908;-75
2022/05/31 05:23:55;;;;;;;;;;;14.40;99.90;;;;;;5114025;28;19915;-76
2022/05/31 05:26:21;;;;;;;;;;;14.40;99.90;;;;;;5114617;28;19908;-75
2022/05/31 05:31:35;;;;;;;;;;;14.40;99.90;;;;;;5114584;28;20067;-75
2022/05/31 05:34:02;;;;;;;;;;;14.40;99.90;;;;;;5114449;28;20036;-76
2022/05/31 05:36:30;;;;;;;;;;;14.40;99.90;;;;;;5114154;28;20002;-75
2022/05/31 05:38:56;;;;;;;;;;;14.40;99.90;;;;;;5114336;28;19912;-75
2022/05/31 05:41:24;;;;;;;;;;;14.30;99.90;;;;;;5114450;28;19992;-76
2022/05/31 05:43:51;;;;;;;;;;;14.30;99.90;;;;;;5114140;28;19908;-76
2022/05/31 05:46:19;;;;;;;;;;;14.30;99.90;;;;;;5114167;28;20274;-76
2022/05/31 05:48:45;;;;;;;;;;;14.20;99.90;;;;;;5114095;28;20423;-76
2022/05/31 05:51:20;;;;;;;;;;;14.10;99.90;;;;;;5113945;28;19911;-76
2022/05/31 05:53:47;;;;;;;;;;;14.00;99.90;;;;;;5113774;28;19928;-76
2022/05/31 05:56:14;;;;;;;;;;;13.70;99.90;;;;;;5113942;28;20320;-76
2022/05/31 05:58:42;;;;;;;;;;;13.40;99.90;;;;;;5114162;28;20311;-75
2022/05/31 06:01:14;;;;;;;;;;;13.30;99.90;;;;;;5114084;28;20002;-77
2022/05/31 06:03:49;;;;;;;;;;;13.10;99.90;;;;;;5112619;28;20007;-76
2022/05/31 06:06:16;;;;;;;;;;;13.00;99.90;;;;;;5113697;28;19953;-77
2022/05/31 06:08:47;;;;;;;;;;;12.80;99.90;;;;;;5113855;28;19924;-77
2022/05/31 06:11:13;;;;;;;;;;;12.60;99.90;;;;;;5114005;28;20403;-76
2022/05/31 06:13:42;;;;;;;;;;;12.50;99.90;;;;;;5113650;28;19915;-76
2022/05/31 06:16:09;;;;;;;;;;;12.40;99.90;;;;;;5113806;28;19923;-77
2022/05/31 06:18:38;;;;;;;;;;;12.20;99.90;;;;;;5113933;28;19911;-78
2022/05/31 06:21:06;;;;;;;;;;;12.10;99.90;;;;;;5113641;28;20397;-76
2022/05/31 06:23:33;;;;;;;;;;;12.00;99.90;;;;;;5113534;28;19908;-78
2022/05/31 06:26:00;;;;;;;;;;;12.00;99.90;;;;;;5113821;28;19908;-77
2022/05/31 06:28:27;;;;;;;;;;;11.90;99.90;;;;;;5113844;28;19965;-76
2022/05/31 06:30:53;;;;;;;;;;;12.00;99.90;;;;;;5113726;28;19960;-77
2022/05/31 06:33:20;;;;;;;;;;;12.00;99.90;;;;;;5113734;28;20251;-76
2022/05/31 06:35:47;;;;;;;;;;;12.00;99.90;;;;;;5116440;28;19920;-77
2022/05/31 06:38:16;;;;;;;;;;;12.10;99.90;;;;;;5118087;28;19914;-77
2022/05/31 06:40:43;;;;;;;;;;;12.30;99.90;;;;;;5117822;28;19907;-77
2022/05/31 06:43:09;;;;;;;;;;;12.20;99.90;;;;;;5117912;28;20350;-77
2022/05/31 06:45:36;;;;;;;;;;;12.20;99.90;;;;;;5117610;28;19918;-77
2022/05/31 06:48:03;;;;;;;;;;;12.20;99.90;;;;;;5117887;28;19915;-77
2022/05/31 06:50:30;;;;;;;;;;;12.20;99.90;;;;;;5117447;28;19908;-77
2022/05/31 06:58:27;;;;;;;;;;;12.20;99.90;;;;;;5115564;28;20412;-76
2022/05/31 07:00:55;;;;;;;;;;;12.30;99.90;;;;;;5115090;28;20297;-77
2022/05/31 07:03:22;;;;;;;;;;;12.30;99.90;;;;;;5115074;28;19984;-76
2022/05/31 07:05:55;;;;;;;;;;;12.30;99.90;;;;;;5114560;28;20339;-77
2022/05/31 07:08:21;;;;;;;;;;;12.20;99.90;;;;;;5115365;28;19911;-76
2022/05/31 07:10:48;;;;;;;;;;;12.20;99.90;;;;;;5115143;28;19912;-76
2022/05/31 07:13:15;;;;;;;;;;;12.20;99.90;;;;;;5115198;28;19927;-77
2022/05/31 07:15:41;;;;;;;;;;;12.10;99.90;;;;;;5114740;28;19916;-76
2022/05/31 07:18:08;;;;;;;;;;;12.10;99.90;;;;;;5114692;28;20350;-76
2022/05/31 07:20:35;;;;;;;;;;;12.10;99.90;;;;;;5114798;28;19912;-76
2022/05/31 07:23:01;;;;;;;;;;;12.10;99.90;;;;;;5114911;28;19908;-76
2022/05/31 07:25:28;;;;;;;;;;;12.10;99.90;;;;;;5114890;28;20292;-75
2022/05/31 07:27:55;;;;;;;;;;;12.10;99.90;;;;;;5114891;28;20364;-76
2022/05/31 07:30:21;;;;;;;;;;;12.20;99.90;;;;;;5114446;28;19912;-76
2022/05/31 07:32:48;;;;;;;;;;;12.10;99.90;;;;;;5114308;28;19960;-75
2022/05/31 07:35:15;;;;;;;;;;;12.20;99.90;;;;;;5114250;28;20020;-76
2022/05/31 07:37:41;;;;;;;;;;;12.20;99.90;;;;;;5114466;28;19908;-76
2022/05/31 07:40:08;;;;;;;;;;;12.10;99.90;;;;;;5114647;28;20015;-76
2022/05/31 07:42:35;;;;;;;;;;;12.20;99.90;;;;;;5114389;28;19943;-76
2022/05/31 07:45:02;;;;;;;;;;;12.10;99.90;;;;;;5114016;28;19976;-76
2022/05/31 07:47:30;;;;;;;;;;;12.10;99.90;;;;;;5114326;28;20323;-75
2022/05/31 07:49:56;;;;;;;;;;;12.10;99.90;;;;;;5114270;28;19912;-76
2022/05/31 07:52:23;;;;;;;;;;;12.10;99.90;;;;;;5114098;28;19923;-76
2022/05/31 07:54:50;;;;;;;;;;;12.10;99.90;;;;;;5114274;28;20395;-75
2022/05/31 08:00:01;;;;;;;;;;;12.10;99.90;;;;;;5072811;28;19923;-76
2022/05/31 08:02:28;;;;;;;;;;;12.10;99.90;;;;;;5071998;28;19919;-76
2022/05/31 08:04:55;;;;;;;;;;;12.10;99.90;;;;;;5071395;28;19908;-76
2022/05/31 08:07:21;;;;;;;;;;;12.10;99.90;;;;;;5071476;28;19916;-76
2022/05/31 08:09:48;;;;;;;;;;;12.10;99.90;;;;;;5070975;28;19908;-76
2022/05/31 08:12:15;;;;;;;;;;;12.10;99.90;;;;;;5072149;28;19995;-76
2022/05/31 08:14:41;;;;;;;;;;;12.00;99.90;;;;;;5072691;28;19966;-76
2022/05/31 08:17:10;;;;;;;;;;;12.00;99.90;;;;;;5073275;28;19916;-76
2022/05/31 08:19:37;;;;;;;;;;;12.00;99.90;;;;;;5072958;28;19918;-76
2022/05/31 08:22:04;;;;;;;;;;;12.00;99.90;;;;;;5072849;28;19908;-76
2022/05/31 08:24:31;;;;;;;;;;;12.00;99.90;;;;;;5072600;28;20429;-77
2022/05/31 08:27:00;;;;;;;;;;;12.00;99.90;;;;;;5073209;28;20011;-76
2022/05/31 08:29:28;;;;;;;;;;;12.00;99.90;;;;;;5072200;28;19968;-76
2022/05/31 08:31:58;;;;;;;;;;;12.00;99.90;;;;;;5072961;28;20319;-75
2022/05/31 08:34:29;;;;;;;;;;;12.10;99.90;;;;;;5105402;28;19955;-76
2022/05/31 08:36:56;;;;;;;;;;;12.00;99.90;;;;;;5073007;28;19920;-75
2022/05/31 08:39:22;;;;;;;;;;;12.00;99.90;;;;;;5072086;28;19956;-76
2022/05/31 08:41:51;;;;;;;;;;;12.10;99.90;;;;;;5072522;28;19916;-76
2022/05/31 08:44:27;;;;;;;;;;;12.10;99.90;;;;;;5071808;28;20011;-76
2022/05/31 08:47:11;;;;;;;;;;;12.10;99.90;;;;;;5072602;28;19931;-75
2022/05/31 08:52:33;;;;;;;;;;;12.10;99.90;;;;;;5072216;28;19970;-75
2022/05/31 08:57:48;;;;;;;;;;;12.10;99.90;;;;;;5071620;28;20374;-76
2022/05/31 09:00:14;;;;;;;;;;;12.10;99.90;;;;;;5072515;28;19919;-76
2022/05/31 09:02:47;;;;;;;;;;;12.10;99.90;;;;;;5072111;28;19916;-76
2022/05/31 09:05:26;;;;;;;;;;;12.00;99.90;;;;;;5072519;28;19952;-76
2022/05/31 09:08:15;;;;;;;;;;;12.00;99.90;;;;;;5074263;28;19908;-76
2022/05/31 09:11:20;;;;;;;;;;;12.00;99.90;;;;;;5071490;28;19915;-76
2022/05/31 09:14:05;;;;;;;;;;;12.00;99.90;;;;;;5051924;28;19916;-76
2022/05/31 09:16:45;;;;;;;;;;;12.00;99.90;;;;;;5052019;28;19917;-75
2022/05/31 09:19:18;;;;;;;;;;;12.00;99.90;;;;;;5067406;28;19908;-75
2022/05/31 09:21:47;;;;;;;;;;;12.00;99.90;;;;;;5073756;28;19913;-76
2022/05/31 09:24:15;;;;;;;;;;;12.00;99.90;;;;;;5074051;28;19998;-76
2022/05/31 09:26:41;;;;;;;;;;;12.00;99.90;;;;;;5073854;28;20359;-76
2022/05/31 09:29:15;;;;;;;;;;;12.00;99.90;;;;;;5074019;28;19912;-75
2022/05/31 09:31:53;;;;;;;;;;;12.00;99.90;;;;;;5073834;28;19999;-76
2022/05/31 09:34:38;;;;;;;;;;;12.00;99.90;;;;;;5073788;28;20436;-76
2022/05/31 09:37:24;;;;;;;;;;;12.00;99.90;;;;;;5073769;28;19920;-76
2022/05/31 09:39:57;;;;;;;;;;;11.90;99.90;;;;;;5073547;28;19915;-75
2022/05/31 09:42:27;;;;;;;;;;;11.90;99.90;;;;;;5073531;28;19908;-75
2022/05/31 09:45:03;;;;;;;;;;;11.90;99.90;;;;;;5073509;28;20363;-75
2022/05/31 09:47:29;;;;;;;;;;;11.90;99.90;;;;;;5073442;28;19999;-76
2022/05/31 09:49:56;;;;;;;;;;;11.90;99.90;;;;;;5073621;28;19916;-76
2022/05/31 09:52:35;;;;;;;;;;;11.90;99.90;;;;;;5073371;28;20275;-76
2022/05/31 09:58:08;;;;;;;;;;;12.00;99.90;;;;;;5073325;28;19970;-75
2022/05/31 10:00:36;;;;;;;;;;;12.00;99.90;;;;;;5073316;28;20359;-76
2022/05/31 10:03:06;;;;;;;;;;;12.00;99.90;;;;;;5073465;28;19909;-75
2022/05/31 10:05:32;;;;;;;;;;;12.00;99.90;;;;;;5072998;28;19915;-76
2022/05/31 10:07:59;;;;;;;;;;;12.10;99.90;;;;;;5073182;28;19909;-76
2022/05/31 10:10:28;;;;;;;;;;;12.10;99.90;;;;;;5072312;28;19935;-76
2022/05/31 10:12:56;;;;;;;;;;;12.10;99.90;;;;;;5073308;28;19923;-76
2022/05/31 10:15:37;;;;;;;;;;;12.10;99.90;;;;;;5073078;28;20025;-75
2022/05/31 10:18:06;;;;;;;;;;;12.10;99.90;;;;;;5073474;28;19917;-75
2022/05/31 10:20:33;;;;;;;;;;;12.10;99.90;;;;;;5073055;28;20343;-76
2022/05/31 10:23:01;;;;;;;;;;;12.10;99.90;;;;;;5073315;28;19995;-76
2022/05/31 10:25:28;;;;;;;;;;;12.10;99.90;;;;;;5073040;28;19908;-75
2022/05/31 10:28:05;;;;;;;;;;;12.10;99.90;;;;;;5071724;28;19909;-75
2022/05/31 10:30:32;;;;;;;;;;;12.20;99.90;;;;;;5071142;28;19979;-75
2022/05/31 10:32:59;;;;;;;;;;;12.10;99.90;;;;;;5071115;28;19974;-75
2022/05/31 10:35:30;;;;;;;;;;;12.20;99.90;;;;;;5070943;28;20017;-76
2022/05/31 10:37:59;;;;;;;;;;;12.10;99.90;;;;;;5070919;28;19908;-76
2022/05/31 10:40:29;;;;;;;;;;;12.10;99.90;;;;;;5071011;28;19960;-76
2022/05/31 10:42:59;;;;;;;;;;;12.10;99.90;;;;;;5070496;28;20017;-76
2022/05/31 10:45:27;;;;;;;;;;;12.10;99.90;;;;;;5070899;28;20058;-76
2022/05/31 10:47:58;;;;;;;;;;;12.00;99.90;;;;;;5070530;28;19993;-76
2022/05/31 10:50:33;;;;;;;;;;;12.00;99.90;;;;;;5070662;28;19909;-76
2022/05/31 10:53:13;;;;;;;;;;;12.00;99.90;;;;;;5070733;28;19920;-76
2022/05/31 10:55:48;;;;;;;;;;;12.00;99.90;;;;;;5070047;28;19923;-76
2022/05/31 10:58:33;;;;;;;;;;;12.00;99.90;;;;;;5070272;28;19988;-76
2022/05/31 11:01:04;;;;;;;;;;;12.00;99.90;;;;;;5070906;28;20420;-76
2022/05/31 11:03:34;;;;;;;;;;;12.00;99.90;;;;;;5070409;28;20018;-76
2022/05/31 11:06:08;;;;;;;;;;;12.00;99.90;;;;;;5070498;28;20007;-76
2022/05/31 11:11:59;;;;;;;;;;;12.00;99.90;;;;;;5070682;28;19935;-77
2022/05/31 11:14:38;;;;;;;;;;;12.00;99.90;;;;;;5070879;28;20004;-77
2022/05/31 11:17:10;;;;;;;;;;;11.90;99.90;;;;;;5072715;28;20011;-77
2022/05/31 11:19:40;;;;;;;;;;;12.00;99.90;;;;;;5070854;28;20007;-77
2022/05/31 11:22:22;;;;;;;;;;;12.00;99.90;;;;;;5074030;28;19919;-77
2022/05/31 11:24:57;;;;;;;;;;;12.00;99.90;;;;;;5074507;28;19978;-77
2022/05/31 11:27:42;;;;;;;;;;;11.90;99.90;;;;;;5073970;28;19909;-77
2022/05/31 11:30:22;;;;;;;;;;;11.90;99.90;;;;;;5074416;28;19920;-78
2022/05/31 11:32:49;;;;;;;;;;;11.80;99.90;;;;;;5074387;28;19991;-76
2022/05/31 11:35:19;;;;;;;;;;;11.80;99.90;;;;;;5073497;28;19913;-77
2022/05/31 11:38:00;;;;;;;;;;;11.80;99.90;;;;;;5073882;28;19995;-77
2022/05/31 11:40:39;;;;;;;;;;;11.80;99.90;;;;;;5106737;28;20283;-77
2022/05/31 11:43:24;;;;;;;;;;;11.80;99.90;;;;;;5073920;28;20337;-77
2022/05/31 11:46:03;;;;;;;;;;;11.70;99.90;;;;;;5073937;28;19923;-77
2022/05/31 11:48:32;;;;;;;;;;;11.70;99.90;;;;;;5073463;28;19909;-77
2022/05/31 11:51:02;;;;;;;;;;;11.70;99.90;;;;;;5074963;28;19970;-77
2022/05/31 11:53:46;;;;;;;;;;;11.70;99.90;;;;;;5075961;28;19921;-77
2022/05/31 11:56:29;;;;;;;;;;;11.70;99.90;;;;;;5075661;28;19916;-77
2022/05/31 11:59:03;;;;;;;;;;;11.60;99.90;;;;;;5075895;28;19912;-78
2022/05/31 12:01:55;;;;;;;;;;;11.70;99.90;;;;;;5075916;28;20275;-78
2022/05/31 12:04:31;;;;;;;;;;;11.60;99.90;;;;;;5072056;28;19908;-79
2022/05/31 12:07:04;;;;;;;;;;;11.60;99.90;;;;;;5073658;28;20344;-78
2022/05/31 12:09:49;;;;;;;;;;;11.60;99.90;;;;;;5073381;28;19912;-79
2022/05/31 12:12:42;;;;;;;;;;;11.50;99.90;;;;;;5073058;28;19931;-78
2022/05/31 12:15:14;;;;;;;;;;;11.50;99.90;;;;;;5072389;28;20017;-79
2022/05/31 12:18:01;;;;;;;;;;;11.50;99.90;;;;;;5072723;28;19959;-76
2022/05/31 12:20:34;;;;;;;;;;;11.50;99.90;;;;;;5073183;28;19930;-76
2022/05/31 12:23:21;;;;;;;;;;;11.50;99.90;;;;;;5073379;28;19908;-78
2022/05/31 12:25:50;;;;;;;;;;;11.50;99.90;;;;;;5073029;28;20058;-77
2022/05/31 12:28:19;;;;;;;;;;;11.50;99.90;;;;;;5072939;28;19919;-77
2022/05/31 12:31:04;;;;;;;;;;;11.50;99.90;;;;;;5072842;28;20382;-78
2022/05/31 12:33:43;;;;;;;;;;;11.50;99.90;;;;;;5071821;28;19912;-79
2022/05/31 12:36:14;;;;;;;;;;;11.50;99.90;;;;;;5073102;28;20438;-79
2022/05/31 12:38:59;;;;;;;;;;;11.50;99.90;;;;;;5073035;28;19912;-79
2022/05/31 12:41:37;;;;;;;;;;;11.50;99.90;;;;;;5072116;28;19916;-77
2022/05/31 12:44:13;;;;;;;;;;;11.50;99.90;;;;;;5072936;28;20335;-76
2022/05/31 12:46:41;;;;;;;;;;;11.50;99.90;;;;;;5073271;28;19947;-77
2022/05/31 12:49:10;;;;;;;;;;;11.40;99.90;;;;;;5072630;28;20418;-76
2022/05/31 12:51:38;;;;;;;;;;;11.50;99.90;;;;;;5072321;28;19912;-77
2022/05/31 12:54:06;;;;;;;;;;;11.50;99.90;;;;;;5072706;28;19909;-76
2022/05/31 12:56:34;;;;;;;;;;;11.50;99.90;;;;;;5071593;28;19916;-77
2022/05/31 12:59:01;;;;;;;;;;;11.40;99.90;;;;;;5072701;28;19920;-76
2022/05/31 13:01:28;;;;;;;;;;;11.50;99.90;;;;;;5072210;28;19951;-76
2022/05/31 13:03:57;;;;;;;;;;;11.50;99.90;;;;;;5072556;28;19958;-77
2022/05/31 13:06:29;;;;;;;;;;;11.50;99.90;;;;;;5072581;28;20352;-78
2022/05/31 13:09:25;;;;;;;;;;;11.50;99.90;;;;;;5072086;28;19909;-76
2022/05/31 13:20:31;;;;;;;;;;;11.50;99.90;;;;;;5072364;28;19962;-78
2022/05/31 13:23:01;;;;;;;;;;;11.40;99.90;;;;;;5071762;28;19917;-78
2022/05/31 13:25:29;;;;;;;;;;;11.40;99.90;;;;;;5072213;28;20279;-80
2022/05/31 13:28:00;;;;;;;;;;;11.40;99.90;;;;;;5072024;28;19912;-77
2022/05/31 13:30:29;;;;;;;;;;;11.30;99.90;;;;;;5072101;28;19913;-78
2022/05/31 13:32:59;;;;;;;;;;;11.30;99.90;;;;;;5072125;28;19919;-78
2022/05/31 13:35:30;;;;;;;;;;;11.30;99.90;;;;;;5071481;28;19923;-77
2022/05/31 13:38:26;;;;;;;;;;;11.30;99.90;;;;;;5071986;28;20291;-77
2022/05/31 13:40:58;;;;;;;;;;;11.20;99.90;;;;;;5067051;28;20371;-78
2022/05/31 13:43:26;;;;;;;;;;;11.30;99.90;;;;;;5071770;28;19909;-80
2022/05/31 13:45:54;;;;;;;;;;;11.30;99.90;;;;;;5071617;28;20006;-78
2022/05/31 13:48:22;;;;;;;;;;;11.20;99.90;;;;;;5071322;28;20485;-77
2022/05/31 13:50:54;;;;;;;;;;;11.20;99.90;;;;;;5071685;28;19908;-77
2022/05/31 13:53:22;;;;;;;;;;;11.20;99.90;;;;;;5071496;28;19927;-77
2022/05/31 13:55:58;;;;;;;;;;;11.20;99.90;;;;;;5071368;28;19970;-76
2022/05/31 13:58:29;;;;;;;;;;;11.20;99.90;;;;;;5071638;28;19943;-77
2022/05/31 14:00:56;;;;;;;;;;;11.20;99.90;;;;;;5071196;28;19999;-75
2022/05/31 14:03:27;;;;;;;;;;;11.20;99.90;;;;;;5071506;28;19919;-75
2022/05/31 14:05:58;;;;;;;;;;;11.20;99.90;;;;;;5071348;28;19919;-76
2022/05/31 14:08:28;;;;;;;;;;;11.10;99.90;;;;;;5071509;28;19955;-76
2022/05/31 14:10:55;;;;;;;;;;;11.10;99.90;;;;;;5071512;28;20308;-76
2022/05/31 14:13:25;;;;;;;;;;;11.10;99.90;;;;;;5070901;28;20000;-78
2022/05/31 14:16:07;;;;;;;;;;;11.10;99.90;;;;;;5071120;28;20283;-78
2022/05/31 14:18:39;;;;;;;;;;;11.10;99.90;;;;;;5071175;28;19913;-78
2022/05/31 14:21:05;;;;;;;;;;;11.10;99.90;;;;;;5071372;28;19944;-76
2022/05/31 14:23:33;;;;;;;;;;;11.00;99.90;;;;;;5103596;28;20287;-76
2022/05/31 14:26:01;;;;;;;;;;;11.00;99.90;;;;;;5071278;28;20050;-78
2022/05/31 14:28:28;;;;;;;;;;;11.00;99.90;;;;;;5071046;28;19916;-77
2022/05/31 14:30:57;;;;;;;;;;;11.00;99.90;;;;;;5071092;28;20279;-79
2022/05/31 14:33:28;;;;;;;;;;;11.00;99.90;;;;;;5071174;28;20352;-78
2022/05/31 14:35:57;;;;;;;;;;;11.00;99.90;;;;;;5070849;28;19916;-76
2022/05/31 14:38:37;;;;;;;;;;;11.00;99.90;;;;;;5071244;28;19958;-76
2022/05/31 14:41:05;;;;;;;;;;;11.00;99.90;;;;;;5070809;28;19908;-76
2022/05/31 14:43:35;;;;;;;;;;;10.90;99.90;;;;;;5069568;28;19912;-76
2022/05/31 14:46:04;;;;;;;;;;;10.90;99.90;;;;;;5071111;28;19931;-76
2022/05/31 14:48:42;;;;;;;;;;;10.80;99.90;;;;;;5070857;28;20366;-75
2022/05/31 14:51:21;;;;;;;;;;;10.90;99.90;;;;;;5071065;28;20002;-76
2022/05/31 14:53:51;;;;;;;;;;;10.90;99.90;;;;;;5102759;28;19973;-77
2022/05/31 14:56:38;;;;;;;;;;;10.90;99.90;;;;;;5073386;28;19928;-77
2022/05/31 14:59:07;;;;;;;;;;;10.80;99.90;;;;;;5075114;28;19915;-79
2022/05/31 15:01:40;;;;;;;;;;;10.80;99.90;;;;;;5074788;28;20290;-77
2022/05/31 15:04:07;;;;;;;;;;;10.80;99.90;;;;;;5074762;28;19913;-76
2022/05/31 15:06:35;;;;;;;;;;;10.80;99.90;;;;;;5074488;28;19916;-77